Time;durP1;ratioP1;P1;durP2;ratioP2;P2;SDS_P1;SDS_P2;PMS_P1;PMS_P2;Temp;Humidity;BMP_temperature;BMP_pressure;BME280_temperature;BME280_humidity;BME280_pressure;Samples;Min_cycle;Max_cycle;Signal;HPM_P1;HPM_P2
2023/07/19 00:01:36;;;;;;;15.52;14.18;;;14.90;99.90;;;;;;6122532;23;20017;-77
2023/07/19 00:04:02;;;;;;;18.95;17.15;;;14.90;99.90;;;;;;6122858;23;20013;-77
2023/07/19 00:06:27;;;;;;;17.58;16.02;;;14.90;99.90;;;;;;6122119;23;20021;-77
2023/07/19 00:08:53;;;;;;;12.05;11.05;;;14.80;99.90;;;;;;6122545;23;20123;-77
2023/07/19 00:11:18;;;;;;;13.65;12.35;;;14.80;99.90;;;;;;6122549;23;20014;-77
2023/07/19 00:13:44;;;;;;;13.55;12.40;;;14.80;99.90;;;;;;6122589;23;20049;-77
2023/07/19 00:16:09;;;;;;;11.27;10.35;;;14.70;99.90;;;;;;6122677;23;20014;-76
2023/07/19 00:18:35;;;;;;;17.77;16.20;;;14.70;99.90;;;;;;6122200;23;20010;-77
2023/07/19 00:21:01;;;;;;;17.92;16.23;;;14.60;99.90;;;;;;6122397;23;20041;-77
2023/07/19 00:23:26;;;;;;;12.00;10.85;;;14.60;99.90;;;;;;6122767;23;20343;-77
2023/07/19 00:25:52;;;;;;;16.67;15.15;;;14.60;99.90;;;;;;6097793;23;20108;-76
2023/07/19 00:28:17;;;;;;;13.82;12.63;;;14.60;99.90;;;;;;6122241;23;20049;-77
2023/07/19 00:30:43;;;;;;;11.68;10.57;;;14.50;99.90;;;;;;6122087;23;20509;-77
2023/07/19 00:33:09;;;;;;;14.18;12.82;;;14.50;99.90;;;;;;6123570;23;20010;-77
2023/07/19 00:35:40;;;;;;;13.05;11.68;;;14.50;99.90;;;;;;6124882;23;20006;-77
2023/07/19 00:38:06;;;;;;;14.07;12.82;;;14.50;99.90;;;;;;6124312;23;20032;-77
2023/07/19 00:40:33;;;;;;;15.30;14.07;;;14.50;99.90;;;;;;6099330;23;20462;-77
2023/07/19 00:42:58;;;;;;;18.55;16.98;;;14.50;99.90;;;;;;6124660;23;20018;-77
2023/07/19 00:45:27;;;;;;;19.48;17.85;;;14.50;99.90;;;;;;6100391;23;20021;-77
2023/07/19 00:47:54;;;;;;;22.02;19.92;;;14.60;99.90;;;;;;6123730;23;20046;-77
2023/07/19 00:50:21;;;;;;;16.63;15.23;;;14.60;99.90;;;;;;6123771;23;20018;-77
2023/07/19 00:52:47;;;;;;;16.70;15.20;;;14.60;99.90;;;;;;6124707;23;20109;-77
2023/07/19 00:55:13;;;;;;;16.02;14.63;;;14.60;99.90;;;;;;6124697;23;20037;-77
2023/07/19 00:57:39;;;;;;;14.50;13.27;;;14.60;99.90;;;;;;6124082;23;20006;-76
2023/07/19 01:00:06;;;;;;;15.75;14.40;;;14.60;99.90;;;;;;6124170;23;20398;-77
2023/07/19 01:02:32;;;;;;;13.77;12.57;;;14.60;99.90;;;;;;6124340;23;20363;-77
2023/07/19 01:04:58;;;;;;;17.33;15.63;;;14.50;99.90;;;;;;6124567;23;20018;-77
2023/07/19 01:07:24;;;;;;;22.33;20.52;;;14.60;99.90;;;;;;6123112;23;20013;-77
2023/07/19 01:09:50;;;;;;;17.92;16.42;;;14.50;99.90;;;;;;6123983;23;20033;-77
2023/07/19 01:12:16;;;;;;;21.15;19.25;;;14.60;99.90;;;;;;6123140;23;20069;-77
2023/07/19 01:14:41;;;;;;;16.88;15.57;;;14.50;99.90;;;;;;6124497;23;20010;-77
2023/07/19 01:17:07;;;;;;;19.70;18.00;;;14.50;99.90;;;;;;6123899;23;20010;-77
2023/07/19 01:19:33;;;;;;;21.73;19.88;;;14.60;99.90;;;;;;6123888;23;20071;-77
2023/07/19 01:21:59;;;;;;;16.90;15.32;;;14.60;99.90;;;;;;6124516;23;20018;-77
2023/07/19 01:24:24;;;;;;;18.13;16.50;;;14.60;99.90;;;;;;6123893;23;20006;-77
2023/07/19 01:26:50;;;;;;;22.75;20.95;;;14.50;99.90;;;;;;6123648;23;20037;-77
2023/07/19 01:29:16;;;;;;;18.10;16.63;;;14.60;99.90;;;;;;6099325;23;20034;-77
2023/07/19 01:31:41;;;;;;;20.50;18.80;;;14.60;99.90;;;;;;6100085;23;20058;-77
2023/07/19 01:34:07;;;;;;;19.13;17.52;;;14.60;99.90;;;;;;6123971;23;20116;-77
2023/07/19 01:36:33;;;;;;;17.48;16.08;;;14.50;99.90;;;;;;6122911;23;20041;-77
2023/07/19 01:38:59;;;;;;;20.88;19.08;;;14.60;99.90;;;;;;6123606;23;20465;-77
2023/07/19 01:41:24;;;;;;;21.48;19.73;;;14.50;99.90;;;;;;6124202;23;20018;-77
2023/07/19 01:43:50;;;;;;;18.13;16.73;;;14.50;99.90;;;;;;6122923;23;20025;-77
2023/07/19 01:46:16;;;;;;;19.77;18.02;;;14.50;99.90;;;;;;6123384;23;20014;-77
2023/07/19 01:48:41;;;;;;;26.38;24.27;;;14.50;99.90;;;;;;6123456;23;20097;-77
2023/07/19 01:51:07;;;;;;;17.05;15.55;;;14.50;99.90;;;;;;6124056;23;20077;-77
2023/07/19 01:53:32;;;;;;;23.33;21.40;;;14.40;99.90;;;;;;6124084;23;20017;-77
2023/07/19 01:55:58;;;;;;;23.52;21.60;;;14.40;99.90;;;;;;6099480;23;20064;-77
2023/07/19 01:58:24;;;;;;;21.50;19.80;;;14.40;99.90;;;;;;6099156;23;20010;-77
2023/07/19 02:00:49;;;;;;;18.88;17.48;;;14.40;99.90;;;;;;6124495;23;20018;-77
2023/07/19 02:03:15;;;;;;;46.05;41.40;;;14.40;99.90;;;;;;6123612;23;20522;-77
2023/07/19 02:05:40;;;;;;;20.13;18.52;;;14.50;99.90;;;;;;6123580;23;20056;-76
2023/07/19 02:08:06;;;;;;;24.10;22.30;;;14.40;99.90;;;;;;6122980;23;20022;-77
2023/07/19 02:10:32;;;;;;;24.02;22.08;;;14.50;99.90;;;;;;6124108;23;20029;-77
2023/07/19 02:12:57;;;;;;;23.38;21.60;;;14.50;99.90;;;;;;6124003;23;20041;-77
2023/07/19 02:15:23;;;;;;;25.38;23.25;;;14.40;99.90;;;;;;6124009;23;20093;-77
2023/07/19 02:17:48;;;;;;;23.13;21.23;;;14.50;99.90;;;;;;6122531;23;20447;-77
2023/07/19 02:20:19;;;;;;;23.52;21.58;;;14.50;99.90;;;;;;6123395;23;20013;-77
2023/07/19 02:22:45;;;;;;;21.75;20.05;;;14.50;99.90;;;;;;6123846;23;20081;-77
2023/07/19 02:25:10;;;;;;;24.38;22.35;;;14.50;99.90;;;;;;6123860;23;20010;-77
2023/07/19 02:27:36;;;;;;;19.88;18.30;;;14.60;99.90;;;;;;6122364;23;20067;-77
2023/07/19 02:30:02;;;;;;;28.92;26.63;;;14.60;99.90;;;;;;6099249;23;20026;-77
2023/07/19 02:32:28;;;;;;;21.10;19.40;;;14.60;99.90;;;;;;6122968;23;20017;-77
2023/07/19 02:34:54;;;;;;;21.63;19.85;;;14.60;99.90;;;;;;6123797;23;20355;-77
2023/07/19 02:37:19;;;;;;;21.10;19.45;;;14.60;99.90;;;;;;6122747;23;20010;-77
2023/07/19 02:39:45;;;;;;;20.63;18.75;;;14.60;99.90;;;;;;6123652;23;20014;-77
2023/07/19 02:42:10;;;;;;;20.88;19.02;;;14.60;99.90;;;;;;6124442;23;20018;-77
2023/07/19 02:44:36;;;;;;;21.85;20.05;;;14.60;99.90;;;;;;6122693;23;20018;-76
2023/07/19 02:47:02;;;;;;;25.75;23.75;;;14.60;99.90;;;;;;6122656;23;20037;-77
2023/07/19 02:49:27;;;;;;;22.10;20.38;;;14.60;99.90;;;;;;6122894;23;20017;-77
2023/07/19 02:51:53;;;;;;;20.63;18.92;;;14.60;99.90;;;;;;6123591;23;20061;-77
2023/07/19 02:54:18;;;;;;;22.15;20.20;;;14.60;99.90;;;;;;6098920;23;20014;-77
2023/07/19 02:56:44;;;;;;;21.70;20.00;;;14.60;99.90;;;;;;6122299;23;20006;-76
2023/07/19 02:59:10;;;;;;;25.95;23.90;;;14.60;99.90;;;;;;6123143;23;20458;-77
2023/07/19 03:01:36;;;;;;;26.85;24.50;;;14.60;99.90;;;;;;6123297;23;20021;-77
2023/07/19 03:04:02;;;;;;;38.70;35.17;;;14.50;99.90;;;;;;6123563;23;20045;-77
2023/07/19 03:06:28;;;;;;;26.48;24.35;;;14.60;99.90;;;;;;6122735;23;20013;-77
2023/07/19 03:08:54;;;;;;;31.08;28.45;;;14.60;99.90;;;;;;6122678;23;20021;-77
2023/07/19 03:11:19;;;;;;;25.85;23.48;;;14.60;99.90;;;;;;6098997;23;20474;-77
2023/07/19 03:13:45;;;;;;;20.48;18.85;;;14.60;99.90;;;;;;6123423;23;20045;-77
2023/07/19 03:16:10;;;;;;;26.45;24.25;;;14.60;99.90;;;;;;6122802;23;20080;-77
2023/07/19 03:18:36;;;;;;;28.58;26.13;;;14.70;99.90;;;;;;6122764;23;20017;-77
2023/07/19 03:21:02;;;;;;;30.25;27.48;;;14.70;99.90;;;;;;6122725;23;20014;-77
2023/07/19 03:23:30;;;;;;;33.10;30.13;;;14.70;99.90;;;;;;6123685;23;20068;-77
2023/07/19 03:25:58;;;;;;;31.85;28.95;;;14.80;99.90;;;;;;6122978;23;20020;-77
2023/07/19 03:28:29;;;;;;;33.17;30.25;;;14.70;99.90;;;;;;6098483;23;20013;-77
2023/07/19 03:30:55;;;;;;;59.60;42.50;;;14.80;99.90;;;;;;6123212;23;20010;-78
2023/07/19 03:33:22;;;;;;;40.50;36.58;;;14.80;99.90;;;;;;6099601;23;20340;-78
2023/07/19 03:35:48;;;;;;;43.92;40.10;;;14.80;99.90;;;;;;6123798;23;20467;-78
2023/07/19 03:38:14;;;;;;;48.33;43.78;;;14.80;99.90;;;;;;6122975;23;20088;-78
2023/07/19 03:40:40;;;;;;;52.65;47.40;;;14.90;99.90;;;;;;6123991;23;20052;-77
2023/07/19 03:43:05;;;;;;;52.20;46.95;;;14.90;99.90;;;;;;6123185;23;20021;-78
2023/07/19 03:45:31;;;;;;;51.53;44.95;;;14.90;99.90;;;;;;6123676;23;20454;-78
2023/07/19 03:47:56;;;;;;;47.10;42.45;;;14.90;99.90;;;;;;6098234;23;20010;-78
2023/07/19 03:50:24;;;;;;;41.00;37.40;;;15.00;99.90;;;;;;6124865;23;20018;-78
2023/07/19 03:52:50;;;;;;;52.88;47.35;;;15.00;99.90;;;;;;6125004;23;20451;-78
2023/07/19 03:55:15;;;;;;;59.70;50.60;;;15.00;99.90;;;;;;6124264;23;20021;-78
2023/07/19 03:57:41;;;;;;;64.82;55.88;;;15.10;99.90;;;;;;6123119;23;20227;-78
2023/07/19 04:00:08;;;;;;;49.30;44.45;;;15.10;99.90;;;;;;6100974;23;20477;-78
2023/07/19 04:02:34;;;;;;;79.03;55.20;;;15.10;99.90;;;;;;6124227;23;20025;-78
2023/07/19 04:04:59;;;;;;;49.60;42.45;;;15.20;99.90;;;;;;6124645;23;20010;-78
2023/07/19 04:07:26;;;;;;;47.85;41.67;;;15.20;99.90;;;;;;6122593;23;20018;-78
2023/07/19 04:09:52;;;;;;;47.05;41.38;;;15.20;99.90;;;;;;6126075;23;20018;-79
2023/07/19 04:12:17;;;;;;;40.58;35.42;;;15.20;99.90;;;;;;6126417;23;20017;-79
2023/07/19 04:14:43;;;;;;;32.58;29.40;;;15.10;99.90;;;;;;6128893;23;20014;-78
2023/07/19 04:17:10;;;;;;;31.05;28.23;;;15.20;99.90;;;;;;6104391;23;20029;-78
2023/07/19 04:19:36;;;;;;;40.33;35.88;;;15.20;99.90;;;;;;6126400;23;20020;-79
2023/07/19 04:22:02;;;;;;;35.40;31.83;;;15.20;99.90;;;;;;6126318;23;20022;-78
2023/07/19 04:24:28;;;;;;;40.53;36.17;;;15.20;99.90;;;;;;6124281;23;20540;-78
2023/07/19 04:26:54;;;;;;;39.35;35.30;;;15.20;99.90;;;;;;6126643;23;20021;-79
2023/07/19 04:29:21;;;;;;;47.45;37.20;;;15.20;99.90;;;;;;6127124;23;20018;-78
2023/07/19 04:31:47;;;;;;;36.97;33.22;;;15.30;99.90;;;;;;6127155;23;20021;-78
2023/07/19 04:34:13;;;;;;;36.13;31.40;;;15.30;99.90;;;;;;6126706;23;20014;-78
2023/07/19 04:36:39;;;;;;;34.53;29.60;;;15.30;99.90;;;;;;6105374;23;20477;-78
2023/07/19 04:39:05;;;;;;;27.23;23.70;;;15.40;99.90;;;;;;6129302;23;20112;-78
2023/07/19 04:41:32;;;;;;;28.90;25.58;;;15.40;99.90;;;;;;6127232;23;20463;-78
2023/07/19 04:43:58;;;;;;;33.70;26.67;;;15.40;99.90;;;;;;6124978;23;20014;-78
2023/07/19 04:46:24;;;;;;;24.38;20.95;;;15.40;99.90;;;;;;6124077;23;20010;-78
2023/07/19 04:48:50;;;;;;;23.55;21.08;;;15.40;99.90;;;;;;6105078;23;20014;-78
2023/07/19 04:51:15;;;;;;;21.63;19.42;;;15.40;99.90;;;;;;6125943;23;20025;-77
2023/07/19 04:53:41;;;;;;;18.90;16.90;;;15.40;99.90;;;;;;6102781;23;20320;-78
2023/07/19 04:56:06;;;;;;;19.30;17.17;;;15.40;99.90;;;;;;6126513;23;20057;-78
2023/07/19 04:58:32;;;;;;;21.88;19.45;;;15.40;99.90;;;;;;6127961;23;20013;-78
2023/07/19 05:01:05;;;;;;;16.40;14.70;;;15.40;99.90;;;;;;6101320;23;20014;-78
2023/07/19 05:03:31;;;;;;;17.20;15.50;;;15.40;99.90;;;;;;6103710;23;20024;-77
2023/07/19 05:05:57;;;;;;;17.52;15.70;;;15.40;99.90;;;;;;6124090;23;20066;-78
2023/07/19 05:08:23;;;;;;;14.23;12.82;;;15.40;99.90;;;;;;6127355;23;20047;-78
2023/07/19 05:10:48;;;;;;;21.92;15.68;;;15.50;99.90;;;;;;6128827;23;20021;-78
2023/07/19 05:13:14;;;;;;;14.80;10.98;;;15.50;99.90;;;;;;6127140;23;20017;-77
2023/07/19 05:15:39;;;;;;;10.77;9.30;;;15.50;99.90;;;;;;6127942;23;20097;-78
2023/07/19 05:18:05;;;;;;;11.50;9.93;;;15.50;99.90;;;;;;6124113;23;20017;-78
2023/07/19 05:20:31;;;;;;;8.15;7.35;;;15.50;99.90;;;;;;6124864;23;20010;-78
2023/07/19 05:22:56;;;;;;;12.95;9.02;;;15.60;99.90;;;;;;6124631;23;20010;-78
2023/07/19 05:25:22;;;;;;;12.23;10.43;;;15.50;99.90;;;;;;6126210;23;20346;-78
2023/07/19 05:27:48;;;;;;;21.83;13.38;;;15.50;99.90;;;;;;6124917;23;20014;-78
2023/07/19 05:30:13;;;;;;;12.73;11.18;;;15.40;99.90;;;;;;6124838;23;20037;-78
2023/07/19 05:32:39;;;;;;;9.90;8.60;;;15.40;99.90;;;;;;6124520;23;20481;-78
2023/07/19 05:35:05;;;;;;;11.15;8.90;;;15.50;99.90;;;;;;6125234;23;20017;-78
2023/07/19 05:37:31;;;;;;;10.90;8.48;;;15.50;99.90;;;;;;6125157;23;20014;-78
2023/07/19 05:39:56;;;;;;;11.52;10.25;;;15.50;99.90;;;;;;6125056;23;20014;-78
2023/07/19 05:42:22;;;;;;;16.90;13.52;;;15.50;99.90;;;;;;6101034;23;20052;-78
2023/07/19 05:44:47;;;;;;;9.80;8.88;;;15.50;99.90;;;;;;6127329;23;20070;-78
2023/07/19 05:47:13;;;;;;;12.73;11.55;;;15.60;99.90;;;;;;6126288;23;20025;-78
2023/07/19 05:49:38;;;;;;;9.50;8.57;;;15.60;99.90;;;;;;6127858;23;20021;-78
2023/07/19 05:52:05;;;;;;;13.95;11.48;;;15.60;99.90;;;;;;6127587;23;20085;-78
2023/07/19 05:54:30;;;;;;;11.13;9.98;;;15.70;99.90;;;;;;6125656;23;20018;-78
2023/07/19 05:56:56;;;;;;;12.05;10.80;;;15.80;99.90;;;;;;6125197;23;20006;-78
2023/07/19 05:59:21;;;;;;;10.88;9.88;;;15.90;99.90;;;;;;6101309;23;20017;-78
2023/07/19 06:01:47;;;;;;;11.90;10.65;;;16.00;99.90;;;;;;6125491;23;20025;-78
2023/07/19 06:04:13;;;;;;;14.00;11.07;;;16.10;99.90;;;;;;6125301;23;20399;-78
2023/07/19 06:06:39;;;;;;;9.15;8.35;;;16.20;99.90;;;;;;6125136;23;20073;-78
2023/07/19 06:09:05;;;;;;;10.80;7.97;;;16.30;99.90;;;;;;6126244;23;20462;-78
2023/07/19 06:11:34;;;;;;;12.02;10.80;;;16.40;99.90;;;;;;6125598;23;20018;-78
2023/07/19 06:14:01;;;;;;;18.67;13.90;;;16.50;99.90;;;;;;6125730;23;20006;-78
2023/07/19 06:16:27;;;;;;;11.05;9.75;;;16.70;99.90;;;;;;6100131;23;20014;-78
2023/07/19 06:18:53;;;;;;;8.55;6.32;;;16.80;99.90;;;;;;6125547;23;20082;-78
2023/07/19 06:21:18;;;;;;;10.18;8.32;;;16.90;99.90;;;;;;6100967;23;20080;-78
2023/07/19 06:23:44;;;;;;;9.38;6.80;;;17.10;99.90;;;;;;6151218;23;20020;-78
2023/07/19 06:26:13;;;;;;;9.95;7.70;;;17.20;99.90;;;;;;6124768;23;20018;-78
2023/07/19 06:28:38;;;;;;;8.32;6.60;;;17.30;99.90;;;;;;6125297;23;20014;-78
2023/07/19 06:31:04;;;;;;;8.15;7.03;;;17.40;99.90;;;;;;6125003;23;20324;-78
2023/07/19 06:33:30;;;;;;;11.38;6.03;;;17.40;99.90;;;;;;6149949;23;20018;-78
2023/07/19 06:35:56;;;;;;;8.90;6.20;;;17.50;99.90;;;;;;6099740;23;20009;-78
2023/07/19 06:38:22;;;;;;;7.22;5.55;;;17.60;99.90;;;;;;6125159;23;20014;-79
2023/07/19 06:40:47;;;;;;;7.80;3.78;;;17.60;99.90;;;;;;6124899;23;20017;-78
2023/07/19 06:43:13;;;;;;;6.70;3.58;;;17.60;99.90;;;;;;6125503;23;20014;-78
2023/07/19 06:45:39;;;;;;;4.38;3.55;;;17.60;99.90;;;;;;6124067;23;20014;-77
2023/07/19 06:48:05;;;;;;;5.28;3.60;;;17.60;99.90;;;;;;6123158;23;20016;-76
2023/07/19 06:50:31;;;;;;;8.80;4.75;;;17.50;99.90;;;;;;6123942;23;20363;-78
2023/07/19 06:52:56;;;;;;;6.25;4.78;;;17.60;99.90;;;;;;6097127;23;20403;-77
2023/07/19 06:55:23;;;;;;;7.05;4.60;;;17.70;99.90;;;;;;6122914;23;20010;-76
2023/07/19 06:57:48;;;;;;;7.03;4.25;;;17.80;99.90;;;;;;6123030;23;20343;-76
2023/07/19 07:00:14;;;;;;;5.72;3.45;;;17.90;99.90;;;;;;6123494;23;20016;-77
2023/07/19 07:02:40;;;;;;;5.20;3.03;;;18.00;99.90;;;;;;6147917;23;20036;-77
2023/07/19 07:05:06;;;;;;;7.57;4.45;;;18.10;99.90;;;;;;6121083;23;20425;-77
2023/07/19 07:07:31;;;;;;;5.13;3.58;;;18.10;99.90;;;;;;6146851;23;20018;-77
2023/07/19 07:09:58;;;;;;;8.10;3.90;;;18.20;99.90;;;;;;6147819;23;20016;-77
2023/07/19 07:12:23;;;;;;;5.55;3.20;;;18.20;99.90;;;;;;6147531;23;20014;-77
2023/07/19 07:14:49;;;;;;;5.28;4.25;;;18.20;99.90;;;;;;6147624;23;20017;-77
2023/07/19 07:17:15;;;;;;;6.97;3.92;;;18.30;99.90;;;;;;6121945;23;20049;-77
2023/07/19 07:19:40;;;;;;;6.10;3.33;;;18.40;99.90;;;;;;6122320;23;20092;-77
2023/07/19 07:22:06;;;;;;;6.13;3.60;;;18.40;99.90;;;;;;6122320;23;20021;-76
2023/07/19 07:24:31;;;;;;;4.28;3.50;;;18.40;99.90;;;;;;6147690;23;20014;-76
2023/07/19 07:26:57;;;;;;;4.47;3.00;;;18.40;99.90;;;;;;6122436;23;20049;-76
2023/07/19 07:29:22;;;;;;;3.80;2.80;;;18.40;99.90;;;;;;6098701;23;20032;-76
2023/07/19 07:31:48;;;;;;;4.68;2.50;;;18.30;99.90;;;;;;6122678;23;20014;-76
2023/07/19 07:34:14;;;;;;;5.07;2.90;;;18.30;99.90;;;;;;6122761;23;20033;-76
2023/07/19 07:36:39;;;;;;;4.45;2.40;;;18.30;99.90;;;;;;6122864;23;20547;-76
2023/07/19 07:39:05;;;;;;;5.85;2.70;;;18.30;99.90;;;;;;6122360;23;20010;-76
2023/07/19 07:41:32;;;;;;;4.15;2.83;;;18.20;99.90;;;;;;6121741;23;20033;-76
2023/07/19 07:43:57;;;;;;;4.88;2.97;;;18.20;99.90;;;;;;6122922;23;20028;-76
2023/07/19 07:46:24;;;;;;;7.07;2.90;;;18.20;99.90;;;;;;6121378;23;20403;-77
2023/07/19 07:48:50;;;;;;;5.28;2.75;;;18.20;99.90;;;;;;6122854;23;20093;-77
2023/07/19 07:51:15;;;;;;;4.70;2.90;;;18.20;99.90;;;;;;6122505;23;20046;-77
2023/07/19 07:53:41;;;;;;;4.07;2.72;;;18.20;99.90;;;;;;6147515;23;20146;-76
2023/07/19 07:56:07;;;;;;;5.63;2.70;;;18.20;99.90;;;;;;6122705;23;20006;-78
2023/07/19 07:58:32;;;;;;;4.75;2.65;;;18.30;99.90;;;;;;6125513;23;20010;-78
2023/07/19 08:00:59;;;;;;;5.32;2.70;;;18.30;99.90;;;;;;6124192;23;20416;-78
2023/07/19 08:03:25;;;;;;;5.45;2.88;;;18.40;99.90;;;;;;6124488;23;20014;-81
2023/07/19 08:05:51;;;;;;;4.93;2.70;;;18.40;99.90;;;;;;6124678;23;20041;-80
2023/07/19 08:08:16;;;;;;;4.22;2.28;;;18.40;99.90;;;;;;6126789;23;20014;-79
2023/07/19 08:10:42;;;;;;;5.13;2.80;;;18.50;99.90;;;;;;6126904;23;20045;-81
2023/07/19 08:13:08;;;;;;;5.10;3.10;;;18.50;99.90;;;;;;6103887;23;20038;-80
2023/07/19 08:15:35;;;;;;;4.25;2.70;;;18.60;99.90;;;;;;6102379;23;20454;-80
2023/07/19 08:18:00;;;;;;;5.00;3.03;;;18.60;99.90;;;;;;6125080;23;20398;-80
2023/07/19 08:20:26;;;;;;;7.05;3.22;;;18.80;99.90;;;;;;6102206;23;20041;-81
2023/07/19 08:22:52;;;;;;;6.28;2.78;;;18.90;99.90;;;;;;6103711;23;20009;-81
2023/07/19 08:25:21;;;;;;;5.90;2.85;;;19.10;99.90;;;;;;6124744;23;20457;-81
2023/07/19 08:27:48;;;;;;;5.40;3.08;;;19.40;99.90;;;;;;6125575;23;20501;-81
2023/07/19 08:30:17;;;;;;;6.82;3.15;;;19.70;99.90;;;;;;6125440;23;20021;-82
2023/07/19 08:32:47;;;;;;;8.55;3.40;;;20.10;99.90;;;;;;6124884;23;20346;-77
2023/07/19 08:35:16;;;;;;;5.70;3.00;;;20.50;99.90;;;;;;6122360;23;20018;-79
2023/07/19 08:37:44;;;;;;;7.28;2.60;;;20.70;99.90;;;;;;6099570;23;20041;-79
2023/07/19 08:40:12;;;;;;;5.28;2.42;;;20.80;99.90;;;;;;6123090;23;20009;-80
2023/07/19 08:42:38;;;;;;;6.65;2.58;;;20.90;99.90;;;;;;6099055;23;20014;-79
2023/07/19 08:45:07;;;;;;;4.90;2.40;;;20.80;99.90;;;;;;6123326;23;20014;-79
2023/07/19 08:47:33;;;;;;;5.03;2.70;;;20.80;99.90;;;;;;6123604;23;20025;-79
2023/07/19 08:50:00;;;;;;;5.75;2.80;;;20.70;99.90;;;;;;6123494;23;20049;-79
2023/07/19 08:52:27;;;;;;;5.90;2.60;;;20.70;99.90;;;;;;6099188;23;20094;-79
2023/07/19 08:54:53;;;;;;;5.53;2.45;;;20.80;99.90;;;;;;6125273;23;20009;-79
2023/07/19 08:57:18;;;;;;;4.65;2.45;;;20.90;99.90;;;;;;6124840;23;20112;-79
2023/07/19 08:59:44;;;;;;;4.90;2.42;;;21.00;99.90;;;;;;6125282;23;20045;-79
2023/07/19 09:02:10;;;;;;;7.40;2.58;;;21.00;99.90;;;;;;6124066;23;20017;-79
2023/07/19 09:04:38;;;;;;;5.15;2.50;;;21.10;99.90;;;;;;6124793;23;20049;-79
2023/07/19 09:07:04;;;;;;;5.43;2.55;;;21.10;99.90;;;;;;6125328;23;20014;-79
2023/07/19 09:09:29;;;;;;;4.07;2.30;;;21.00;99.90;;;;;;6125655;23;20084;-79
2023/07/19 09:11:55;;;;;;;3.72;2.10;;;21.00;99.90;;;;;;6100053;23;20093;-79
2023/07/19 09:14:34;;;;;;;5.13;2.47;;;21.10;99.90;;;;;;6149837;23;20522;-79
2023/07/19 09:17:00;;;;;;;4.90;2.58;;;21.20;99.90;;;;;;6101910;23;20017;-79
2023/07/19 09:19:26;;;;;;;6.57;3.08;;;21.30;99.90;;;;;;6127641;23;20020;-79
2023/07/19 09:21:51;;;;;;;4.45;2.55;;;21.60;99.90;;;;;;6126697;23;20013;-79
2023/07/19 09:24:17;;;;;;;5.97;3.17;;;21.70;99.90;;;;;;6101649;23;20017;-78
2023/07/19 09:26:56;;;;;;;5.75;3.70;;;21.70;99.90;;;;;;6125846;23;20328;-79
2023/07/19 09:29:22;;;;;;;5.65;3.25;;;21.70;99.90;;;;;;6102471;23;20028;-79
2023/07/19 09:31:59;;;;;;;5.03;3.20;;;21.60;99.90;;;;;;6129114;23;20049;-79
2023/07/19 09:34:37;;;;;;;8.82;3.20;;;21.70;99.90;;;;;;6130877;23;20101;-78
2023/07/19 09:37:03;;;;;;;5.13;2.83;;;21.90;99.90;;;;;;6134271;23;20017;-79
2023/07/19 09:39:30;;;;;;;3.95;2.80;;;22.20;99.90;;;;;;6130507;23;20396;-80
2023/07/19 09:42:00;;;;;;;4.25;2.83;;;22.50;99.90;;;;;;6126498;23;20018;-81
2023/07/19 09:44:27;;;;;;;5.43;2.90;;;22.60;99.90;;;;;;6100995;23;20584;-77
2023/07/19 09:46:54;;;;;;;4.20;2.53;;;22.70;99.90;;;;;;6125623;23;20029;-79
2023/07/19 09:49:20;;;;;;;5.35;2.20;;;22.70;99.90;;;;;;6102539;23;20013;-79
2023/07/19 09:51:47;;;;;;;4.75;1.90;;;22.80;99.90;;;;;;6124385;23;20021;-80
2023/07/19 09:54:14;;;;;;;4.32;2.00;;;23.00;99.90;;;;;;6123242;23;20014;-80
2023/07/19 09:56:42;;;;;;;4.00;1.80;;;23.20;99.90;;;;;;6123341;23;20057;-77
2023/07/19 09:59:18;;;;;;;3.35;1.88;;;23.60;99.90;;;;;;6149986;23;20329;-79
2023/07/19 10:01:44;;;;;;;2.10;1.27;;;24.00;99.90;;;;;;6125710;23;20080;-78
2023/07/19 10:04:33;;;;;;;3.13;1.40;;;24.00;99.90;;;;;;6125141;23;20009;-80
2023/07/19 10:07:03;;;;;;;4.05;1.60;;;24.10;99.90;;;;;;6124686;23;20443;-80
2023/07/19 10:09:30;;;;;;;3.42;1.40;;;24.50;99.90;;;;;;6125251;23;20029;-81
2023/07/19 10:12:00;;;;;;;3.58;1.35;;;25.00;99.90;;;;;;6099179;23;20049;-80
2023/07/19 10:14:27;;;;;;;2.97;1.27;;;25.60;99.90;;;;;;6124862;23;20014;-81
2023/07/19 10:17:00;;;;;;;2.97;1.30;;;25.90;99.90;;;;;;6099251;23;20323;-79
2023/07/19 10:19:26;;;;;;;;;;;26.00;99.90;;;;;;6098885;23;20097;-81
2023/07/19 10:22:07;;;;;;;4.85;1.42;;;25.70;99.90;;;;;;6148794;23;19912;-80
2023/07/19 10:24:37;;;;;;;3.83;1.35;;;25.70;99.90;;;;;;6123431;23;20029;-78
2023/07/19 10:27:04;;;;;;;3.33;1.20;;;25.40;99.90;;;;;;6125995;23;20038;-79
2023/07/19 10:29:40;;;;;;;3.13;1.40;;;25.20;99.90;;;;;;6099083;23;20104;-79
2023/07/19 10:32:07;;;;;;;5.07;1.88;;;25.10;99.90;;;;;;6076130;23;20017;-79
2023/07/19 10:34:33;;;;;;;3.38;1.30;;;24.90;99.90;;;;;;6099801;23;20012;-78
2023/07/19 10:37:06;;;;;;;3.30;1.33;;;24.70;99.90;;;;;;6099455;23;20029;-82
2023/07/19 10:39:32;;;;;;;4.43;1.55;;;24.50;99.90;;;;;;6099548;23;20025;-82
2023/07/19 10:41:59;;;;;;;3.95;1.73;;;24.30;99.90;;;;;;6075604;23;20320;-82
2023/07/19 10:44:26;;;;;;;3.53;1.70;;;24.10;99.90;;;;;;6100802;23;20009;-82
2023/07/19 10:46:55;;;;;;;2.28;1.33;;;24.10;99.90;;;;;;6077264;23;20014;-82
2023/07/19 10:49:23;;;;;;;3.22;1.45;;;24.10;99.90;;;;;;6101137;23;20010;-82
2023/07/19 10:51:56;;;;;;;4.18;1.42;;;24.20;99.90;;;;;;6100915;23;20100;-81
2023/07/19 10:54:22;;;;;;;2.90;1.38;;;24.40;99.90;;;;;;6079036;23;20435;-80
2023/07/19 10:56:52;;;;;;;2.35;1.20;;;24.60;99.90;;;;;;6101160;23;20016;-80
2023/07/19 10:59:18;;;;;;;2.30;1.27;;;24.70;99.90;;;;;;6076983;23;20020;-79
2023/07/19 11:01:48;;;;;;;3.25;1.13;;;25.00;99.90;;;;;;6100992;23;20106;-80
2023/07/19 11:04:14;;;;;;;3.50;1.50;;;25.40;99.90;;;;;;6081074;23;20088;-80
2023/07/19 11:06:56;;;;;;;4.43;1.60;;;25.70;99.90;;;;;;6079524;23;20017;-81
2023/07/19 11:09:22;;;;;;;2.92;1.20;;;26.00;99.90;;;;;;6076356;23;20077;-81
2023/07/19 11:11:49;;;;;;;3.72;1.40;;;26.10;99.90;;;;;;6100379;23;20395;-81
2023/07/19 11:14:28;;;;;;;2.38;1.15;;;25.80;99.90;;;;;;6102377;23;20033;-80
2023/07/19 11:16:56;;;;;;;3.33;1.30;;;25.50;99.90;;;;;;6116935;23;20453;-81
2023/07/19 11:19:39;;;;;;;2.65;1.30;;;25.30;99.90;;;;;;6113922;23;20020;-81
2023/07/19 11:22:05;;;;;;;2.47;1.40;;;25.10;99.90;;;;;;6081379;23;20021;-80
2023/07/19 11:24:41;;;;;;;3.72;1.30;;;25.00;99.90;;;;;;6080201;23;20065;-80
2023/07/19 11:27:08;;;;;;;3.53;1.73;;;24.90;99.90;;;;;;6103271;23;20049;-80
2023/07/19 11:29:34;;;;;;;3.00;1.80;;;24.70;99.90;;;;;;6104202;23;20359;-80
2023/07/19 11:32:20;;;;;;;3.17;1.75;;;24.90;99.90;;;;;;6080143;23;20025;-80
2023/07/19 11:34:48;;;;;;;4.60;1.88;;;25.30;99.90;;;;;;6080821;23;20010;-80
2023/07/19 11:37:33;;;;;;;4.40;2.20;;;25.60;99.90;;;;;;6103787;23;20459;-81
2023/07/19 11:40:09;;;;;;;3.22;1.70;;;25.70;99.90;;;;;;6104340;23;20025;-80
2023/07/19 11:42:56;;;;;;;4.80;2.40;;;25.70;99.90;;;;;;6081521;23;20498;-80
2023/07/19 11:45:25;;;;;;;4.60;2.70;;;25.60;99.90;;;;;;6081669;23;20048;-80
2023/07/19 11:47:58;;;;;;;4.30;2.83;;;25.20;99.90;;;;;;6080426;23;20044;-80
2023/07/19 11:50:25;;;;;;;3.17;2.15;;;25.00;99.90;;;;;;6099387;23;20020;-79
2023/07/19 11:52:55;;;;;;;3.58;2.17;;;24.80;99.90;;;;;;6098974;23;20010;-79
2023/07/19 11:55:22;;;;;;;4.57;2.25;;;25.10;99.90;;;;;;6099669;23;20451;-79
2023/07/19 11:57:51;;;;;;;4.53;2.00;;;25.80;99.90;;;;;;6075878;23;20009;-79
2023/07/19 12:00:18;;;;;;;4.70;1.80;;;26.50;99.90;;;;;;6099549;23;20454;-79
2023/07/19 12:02:44;;;;;;;3.00;1.70;;;27.10;99.90;;;;;;6098865;23;20010;-79
2023/07/19 12:05:15;;;;;;;4.07;1.40;;;27.40;99.90;;;;;;6098440;23;20017;-79
2023/07/19 12:07:40;;;;;;;3.55;2.05;;;27.40;99.90;;;;;;6098701;23;20072;-79
2023/07/19 12:10:07;;;;;;;3.67;2.20;;;27.10;99.90;;;;;;6098647;23;20018;-78
2023/07/19 12:12:33;;;;;;;3.30;2.25;;;26.90;99.90;;;;;;6096890;23;20419;-77
2023/07/19 12:15:07;;;;;;;4.50;2.58;;;26.50;99.90;;;;;;6099278;23;20462;-80
2023/07/19 12:17:34;;;;;;;5.50;2.60;;;26.10;99.90;;;;;;6077140;23;20010;-80
2023/07/19 12:20:00;;;;;;;4.13;2.50;;;25.70;99.90;;;;;;6102018;23;20155;-80
2023/07/19 12:22:29;;;;;;;3.92;2.97;;;25.30;99.90;;;;;;6079405;23;20018;-80
2023/07/19 12:24:55;;;;;;;3.90;2.58;;;24.90;99.90;;;;;;6104129;23;20018;-79
2023/07/19 12:27:21;;;;;;;3.80;2.55;;;24.50;99.90;;;;;;6103669;23;20021;-80
2023/07/19 12:29:47;;;;;;;5.28;3.08;;;24.30;99.90;;;;;;6104070;23;20386;-80
2023/07/19 12:32:14;;;;;;;4.28;2.80;;;24.00;99.90;;;;;;6080350;23;20018;-80
2023/07/19 12:34:44;;;;;;;3.65;2.55;;;23.60;99.90;;;;;;6105019;23;20013;-80
2023/07/19 12:37:10;;;;;;;5.53;2.70;;;23.50;99.90;;;;;;6081167;23;20014;-79